Time;durP1;ratioP1;P1;durP2;ratioP2;P2;SDS_P1;SDS_P2;PMS_P1;PMS_P2;Temp;Humidity;BMP_temperature;BMP_pressure;BME280_temperature;BME280_humidity;BME280_pressure;Samples;Min_cycle;Max_cycle;Signal;HPM_P1;HPM_P2
2022/07/31 00:01:07;;;;;;;;;;;;;;;17.31;54.87;100054.34;4950893;28;19930;-68
2022/07/31 00:03:33;;;;;;;;;;;;;;;17.27;55.10;100050.59;4966459;28;19930;-69
2022/07/31 00:05:58;;;;;;;;;;;;;;;17.25;55.48;100050.09;4952062;28;20361;-70
2022/07/31 00:08:25;;;;;;;;;;;;;;;17.21;55.69;100049.09;4951938;29;19973;-70
2022/07/31 00:10:51;;;;;;;;;;;;;;;17.12;56.51;100049.84;4952268;28;20394;-70
2022/07/31 00:13:17;;;;;;;;;;;;;;;17.05;57.53;100049.47;4949157;28;19930;-70
2022/07/31 00:15:43;;;;;;;;;;;;;;;17.05;57.91;100048.66;4950447;28;19930;-67
2022/07/31 00:18:08;;;;;;;;;;;;;;;16.99;58.56;100053.47;4947930;29;20085;-68
2022/07/31 00:20:34;;;;;;;;;;;;;;;16.93;59.93;100044.44;4950832;28;19985;-67
2022/07/31 00:23:00;;;;;;;;;;;;;;;16.95;60.36;100041.38;4949015;29;19930;-70
2022/07/31 00:25:27;;;;;;;;;;;;;;;16.93;61.24;100041.69;4947719;28;20364;-70
2022/07/31 00:27:53;;;;;;;;;;;;;;;16.92;61.29;100042.00;4947592;29;19937;-69
2022/07/31 00:30:19;;;;;;;;;;;;;;;16.92;61.57;100042.00;4953513;28;20376;-70
2022/07/31 00:32:44;;;;;;;;;;;;;;;16.91;61.31;100046.72;4949553;28;20402;-70
2022/07/31 00:35:12;;;;;;;;;;;;;;;16.92;61.41;100042.00;4948459;28;20024;-71
2022/07/31 00:37:39;;;;;;;;;;;;;;;16.89;61.27;100042.66;4947498;29;19930;-71
2022/07/31 00:40:05;;;;;;;;;;;;;;;16.82;61.54;100037.56;4917828;28;19935;-73
2022/07/31 00:42:32;;;;;;;;;;;;;;;16.82;61.76;100041.13;4952344;28;19936;-70
2022/07/31 00:44:58;;;;;;;;;;;;;;;16.81;61.77;100036.72;4950652;28;19930;-67
2022/07/31 00:47:24;;;;;;;;;;;;;;;16.77;62.13;100027.44;4950351;28;19937;-67
2022/07/31 00:49:50;;;;;;;;;;;;;;;16.80;62.22;100039.81;4950237;29;20370;-67
2022/07/31 00:52:15;;;;;;;;;;;;;;;16.76;62.84;100038.78;4950880;28;19962;-65
2022/07/31 00:54:41;;;;;;;;;;;;;;;16.71;63.10;100034.22;4948701;29;20020;-66
2022/07/31 00:57:07;;;;;;;;;;;;;;;16.68;63.42;100040.31;4949110;28;20382;-66
2022/07/31 00:59:34;;;;;;;;;;;;;;;16.71;63.50;100036.97;4949001;29;20402;-67
2022/07/31 01:02:00;;;;;;;;;;;;;;;16.70;63.74;100038.91;4952008;28;20017;-66
2022/07/31 01:04:26;;;;;;;;;;;;;;;16.73;64.13;100037.47;4946934;29;20458;-67
2022/07/31 01:06:52;;;;;;;;;;;;;;;16.70;64.34;100038.06;4948036;28;20449;-66
2022/07/31 01:09:18;;;;;;;;;;;;;;;16.64;64.95;100042.09;4950059;29;19930;-66
2022/07/31 01:11:46;;;;;;;;;;;;;;;16.55;65.69;100045.59;4950637;28;19937;-66
2022/07/31 01:14:13;;;;;;;;;;;;;;;16.55;65.67;100042.00;4949253;29;19930;-67
2022/07/31 01:16:42;;;;;;;;;;;;;;;16.55;65.66;100047.53;4948901;28;19985;-70
2022/07/31 01:19:10;;;;;;;;;;;;;;;16.56;65.04;100040.88;4933398;29;19934;-69
2022/07/31 01:21:41;;;;;;;;;;;;;;;16.53;64.94;100045.06;4950100;28;19937;-69
2022/07/31 01:24:13;;;;;;;;;;;;;;;16.50;64.78;100047.63;4930888;28;19938;-70
2022/07/31 01:27:02;;;;;;;;;;;;;;;16.53;63.73;100044.25;4933413;29;19931;-71
2022/07/31 01:29:31;;;;;;;;;;;;;;;16.55;62.89;100042.00;4948914;29;19970;-70
2022/07/31 01:32:00;;;;;;;;;;;;;;;16.54;62.76;100041.16;4949495;28;20419;-69
2022/07/31 01:34:28;;;;;;;;;;;;;;;16.53;62.97;100041.50;4950138;28;20303;-70
2022/07/31 01:36:59;;;;;;;;;;;;;;;16.49;62.88;100027.50;4933020;29;19934;-70
2022/07/31 01:39:26;;;;;;;;;;;;;;;16.57;62.75;100037.81;4947562;29;19934;-69
2022/07/31 01:41:52;;;;;;;;;;;;;;;16.58;62.41;100036.69;4948616;28;20025;-70
2022/07/31 01:44:19;;;;;;;;;;;;;;;16.57;61.61;100039.75;4949857;28;19937;-70
2022/07/31 01:46:47;;;;;;;;;;;;;;;16.54;61.89;100043.94;4948964;28;19981;-69
2022/07/31 01:49:17;;;;;;;;;;;;;;;16.54;62.95;100046.69;4948456;29;19981;-68
2022/07/31 01:51:45;;;;;;;;;;;;;;;16.52;63.95;100043.41;4946557;28;20365;-70
2022/07/31 01:54:11;;;;;;;;;;;;;;;16.47;64.55;100038.03;4952052;28;19979;-70
2022/07/31 01:56:38;;;;;;;;;;;;;;;16.44;64.75;100038.66;4934206;29;20330;-69
2022/07/31 01:59:04;;;;;;;;;;;;;;;16.40;65.02;100043.16;4949665;29;20465;-70
2022/07/31 02:01:52;;;;;;;;;;;;;;;16.48;64.41;100044.38;4948978;28;19969;-69
2022/07/31 02:04:18;;;;;;;;;;;;;;;16.48;64.21;100045.19;4946136;28;19930;-68
2022/07/31 02:06:46;;;;;;;;;;;;;;;16.51;64.40;100047.31;4931372;29;20301;-68
2022/07/31 02:09:12;;;;;;;;;;;;;;;16.51;64.13;100041.00;4948476;28;19958;-70
2022/07/31 02:11:38;;;;;;;;;;;;;;;16.54;64.34;100037.59;4951276;28;20484;-71
2022/07/31 02:14:04;;;;;;;;;;;;;;;16.56;63.78;100044.47;4949842;28;19934;-68
2022/07/31 02:16:33;;;;;;;;;;;;;;;16.58;63.93;100049.66;4948601;28;19931;-69
2022/07/31 02:19:07;;;;;;;;;;;;;;;16.61;63.81;100045.47;4947153;29;19937;-70
2022/07/31 02:21:33;;;;;;;;;;;;;;;16.62;63.60;100050.66;4947901;28;19936;-70
2022/07/31 02:23:59;;;;;;;;;;;;;;;16.61;63.78;100056.50;4948855;29;19930;-69
2022/07/31 02:26:26;;;;;;;;;;;;;;;16.60;63.79;100044.63;4950524;28;20394;-70
2022/07/31 02:28:52;;;;;;;;;;;;;;;16.62;63.57;100045.13;4946397;29;19976;-68
2022/07/31 02:31:20;;;;;;;;;;;;;;;16.61;62.89;100046.28;4946536;28;19975;-71
2022/07/31 02:33:47;;;;;;;;;;;;;;;16.66;63.13;100043.41;4948088;29;20389;-70
2022/07/31 02:36:19;;;;;;;;;;;;;;;16.70;62.77;100043.59;4946526;28;20318;-71
2022/07/31 02:38:47;;;;;;;;;;;;;;;16.73;62.42;100045.75;4946737;29;19959;-71
2022/07/31 02:41:14;;;;;;;;;;;;;;;16.77;62.45;100044.00;4947635;28;19930;-69
2022/07/31 02:43:40;;;;;;;;;;;;;;;16.81;62.32;100042.25;4949477;29;19930;-67
2022/07/31 02:46:15;;;;;;;;;;;;;;;16.87;62.05;100043.78;4952767;28;19930;-65
2022/07/31 02:48:42;;;;;;;;;;;;;;;16.95;61.54;100041.38;4970372;28;19937;-67
2022/07/31 02:51:11;;;;;;;;;;;;;;;17.08;61.32;100037.78;4954410;28;19930;-67
2022/07/31 02:53:38;;;;;;;;;;;;;;;17.12;61.42;100044.31;4970908;28;19934;-66
2022/07/31 02:56:08;;;;;;;;;;;;;;;17.17;60.95;100046.16;4971276;28;19930;-66
2022/07/31 02:58:37;;;;;;;;;;;;;;;17.19;60.86;100046.66;4970303;28;19930;-66
2022/07/31 03:01:04;;;;;;;;;;;;;;;17.25;60.65;100047.34;4970738;28;19937;-67
2022/07/31 03:03:31;;;;;;;;;;;;;;;17.24;60.67;100046.50;4969930;28;20298;-67
2022/07/31 03:05:57;;;;;;;;;;;;;;;17.28;60.43;100044.78;4971700;28;19937;-66
2022/07/31 03:08:22;;;;;;;;;;;;;;;17.38;60.04;100049.22;4971230;28;20413;-67
2022/07/31 03:10:53;;;;;;;;;;;;;;;17.49;59.82;100035.97;4969278;28;20479;-66
2022/07/31 03:13:21;;;;;;;;;;;;;;;17.59;59.25;100048.69;4972212;28;19934;-66
2022/07/31 03:15:49;;;;;;;;;;;;;;;17.59;59.47;100043.16;4968428;28;19980;-66
2022/07/31 03:18:16;;;;;;;;;;;;;;;17.52;59.56;100040.84;4969247;28;19961;-67
2022/07/31 03:20:44;;;;;;;;;;;;;;;17.49;59.90;100044.25;4969175;28;20038;-66
2022/07/31 03:23:11;;;;;;;;;;;;;;;17.57;59.25;100046.25;4968300;28;19985;-68
2022/07/31 03:25:47;;;;;;;;;;;;;;;17.67;58.67;100045.19;4969114;28;19933;-67
2022/07/31 03:28:14;;;;;;;;;;;;;;;17.71;58.42;100048.94;4969742;28;19930;-67
2022/07/31 03:30:40;;;;;;;;;;;;;;;17.76;58.51;100047.16;4970383;28;20318;-66
2022/07/31 03:33:06;;;;;;;;;;;;;;;17.77;58.43;100051.56;4952529;28;19930;-67
2022/07/31 03:35:35;;;;;;;;;;;;;;;17.80;58.41;100048.97;4950596;29;19930;-66
2022/07/31 03:38:01;;;;;;;;;;;;;;;17.84;58.43;100044.44;4952650;28;19978;-67
2022/07/31 03:40:27;;;;;;;;;;;;;;;17.89;58.16;100056.50;4953046;28;19930;-67
2022/07/31 03:42:55;;;;;;;;;;;;;;;17.89;57.67;100050.97;4950333;29;19930;-69
2022/07/31 03:45:22;;;;;;;;;;;;;;;17.89;57.75;100054.53;4952285;28;20291;-66
2022/07/31 03:47:48;;;;;;;;;;;;;;;17.92;57.50;100055.88;4935737;29;20312;-67
2022/07/31 03:50:14;;;;;;;;;;;;;;;17.97;57.27;100062.09;4951421;28;19941;-66
2022/07/31 03:52:40;;;;;;;;;;;;;;;18.04;56.93;100067.19;4950871;29;19930;-66
2022/07/31 03:55:06;;;;;;;;;;;;;;;18.08;56.97;100061.81;4950961;28;19930;-67
2022/07/31 03:57:32;;;;;;;;;;;;;;;18.14;56.50;100064.13;4952570;28;19962;-66
2022/07/31 04:00:00;;;;;;;;;;;;;;;18.24;56.59;100062.22;4951799;28;19937;-66
2022/07/31 04:02:27;;;;;;;;;;;;;;;18.31;56.31;100067.28;4935076;29;19969;-67
2022/07/31 04:05:04;;;;;;;;;;;;;;;18.42;56.15;100063.09;4950043;28;19937;-67
2022/07/31 04:07:30;;;;;;;;;;;;;;;18.48;55.80;100061.78;4949640;29;19973;-67
2022/07/31 04:09:56;;;;;;;;;;;;;;;18.50;55.43;100065.06;4948705;28;19997;-65
2022/07/31 04:12:22;;;;;;;;;;;;;;;18.55;55.02;100053.00;4949967;28;20414;-67
2022/07/31 04:14:48;;;;;;;;;;;;;;;18.62;54.48;100063.63;4950600;29;19935;-66
2022/07/31 04:17:14;;;;;;;;;;;;;;;18.67;54.41;100064.28;4950611;28;19930;-66
2022/07/31 04:19:41;;;;;;;;;;;;;;;18.71;54.61;100061.66;4949672;29;19934;-68
2022/07/31 04:22:07;;;;;;;;;;;;;;;18.77;54.18;100054.84;4952795;28;19930;-66
2022/07/31 04:24:32;;;;;;;;;;;;;;;18.85;53.81;100054.03;4948269;29;19937;-70
2022/07/31 04:27:01;;;;;;;;;;;;;;;18.96;53.60;100062.03;4948503;28;19937;-69
2022/07/31 04:29:35;;;;;;;;;;;;;;;19.06;53.18;100061.75;4932841;29;19964;-71
2022/07/31 04:32:01;;;;;;;;;;;;;;;19.13;53.28;100064.03;4950115;28;19937;-70
2022/07/31 04:34:34;;;;;;;;;;;;;;;19.20;52.91;100060.72;4949338;28;19935;-69
2022/07/31 04:37:02;;;;;;;;;;;;;;;19.29;52.51;100064.31;4947820;28;20029;-69
2022/07/31 04:39:28;;;;;;;;;;;;;;;19.36;52.11;100064.66;4948547;29;19938;-70
2022/07/31 04:41:55;;;;;;;;;;;;;;;19.34;52.02;100058.59;4945761;28;20382;-70
2022/07/31 04:44:21;;;;;;;;;;;;;;;19.33;51.80;100051.44;4948536;28;20033;-70
2022/07/31 04:46:57;;;;;;;;;;;;;;;19.33;51.58;100053.41;4948189;28;19931;-66
2022/07/31 04:49:23;;;;;;;;;;;;;;;19.35;51.48;100057.47;4950690;29;19946;-68
2022/07/31 04:51:49;;;;;;;;;;;;;;;19.40;51.27;100051.75;4949721;28;19930;-67
2022/07/31 04:54:17;;;;;;;;;;;;;;;19.47;50.55;100054.03;4933569;29;20368;-68
2022/07/31 04:56:43;;;;;;;;;;;;;;;19.51;49.93;100048.63;4947235;28;20425;-67
2022/07/31 04:59:10;;;;;;;;;;;;;;;19.52;49.70;100056.63;4951822;29;19962;-67
2022/07/31 05:01:39;;;;;;;;;;;;;;;19.56;49.58;100048.47;4932454;29;19938;-67
2022/07/31 05:04:05;;;;;;;;;;;;;;;19.61;49.30;100047.50;4949759;28;19934;-68
2022/07/31 05:06:34;;;;;;;;;;;;;;;19.64;49.17;100052.38;4950138;28;19937;-66
2022/07/31 05:09:00;;;;;;;;;;;;;;;19.69;48.89;100055.78;4949200;29;20045;-67
2022/07/31 05:11:30;;;;;;;;;;;;;;;19.76;48.84;100049.72;4948086;28;19930;-67
2022/07/31 05:13:57;;;;;;;;;;;;;;;19.83;48.41;100047.25;4953677;28;19930;-68
2022/07/31 05:16:24;;;;;;;;;;;;;;;19.87;48.10;100046.56;4950434;28;19985;-67
2022/07/31 05:18:50;;;;;;;;;;;;;;;19.89;48.43;100050.66;4949276;29;20037;-67
2022/07/31 05:21:34;;;;;;;;;;;;;;;19.92;48.09;100035.34;4950605;28;20352;-70
2022/07/31 05:24:20;;;;;;;;;;;;;;;20.05;47.93;100041.81;4949421;28;19930;-69
2022/07/31 05:26:55;;;;;;;;;;;;;;;20.08;47.91;100038.38;4967015;28;19952;-69
2022/07/31 05:29:21;;;;;;;;;;;;;;;20.12;47.95;100036.53;4967053;28;19937;-67
2022/07/31 05:31:46;;;;;;;;;;;;;;;20.11;47.56;100026.59;4966605;28;20028;-67
2022/07/31 05:34:12;;;;;;;;;;;;;;;20.22;46.97;100035.38;4967780;28;19976;-68
2022/07/31 05:36:38;;;;;;;;;;;;;;;20.23;46.35;100023.91;4967793;28;19934;-66
2022/07/31 05:39:04;;;;;;;;;;;;;;;20.21;46.79;100029.00;4966668;28;19937;-67
2022/07/31 05:41:39;;;;;;;;;;;;;;;20.27;46.02;100026.84;4966383;28;19929;-67
2022/07/31 05:44:25;;;;;;;;;;;;;;;20.29;45.90;100019.00;4968583;28;20391;-67
2022/07/31 05:46:51;;;;;;;;;;;;;;;20.36;46.20;100021.25;4967501;28;19963;-66
2022/07/31 05:49:17;;;;;;;;;;;;;;;20.45;45.87;100023.97;4967749;28;19938;-69
2022/07/31 05:51:52;;;;;;;;;;;;;;;20.49;45.07;100017.41;4968601;28;19930;-67
2022/07/31 05:54:18;;;;;;;;;;;;;;;20.57;45.37;100014.88;4967340;28;19985;-68
2022/07/31 05:57:20;;;;;;;;;;;;;;;20.78;44.41;100007.41;4933969;29;19953;-70
2022/07/31 05:59:47;;;;;;;;;;;;;;;20.94;44.40;100013.16;4966438;28;20396;-70
2022/07/31 06:02:12;;;;;;;;;;;;;;;21.13;42.92;100013.84;4968350;28;19930;-70
2022/07/31 06:04:56;;;;;;;;;;;;;;;21.34;42.40;100019.34;4966643;28;20423;-71
2022/07/31 06:07:21;;;;;;;;;;;;;;;21.46;41.63;100019.38;4965940;28;19966;-70
2022/07/31 06:09:47;;;;;;;;;;;;;;;21.62;41.26;100027.06;4966962;28;19930;-70
2022/07/31 06:12:13;;;;;;;;;;;;;;;21.76;40.97;100033.13;4964767;28;20401;-70
2022/07/31 06:14:39;;;;;;;;;;;;;;;22.00;39.79;100023.22;4966553;28;19937;-71
2022/07/31 06:17:06;;;;;;;;;;;;;;;22.13;39.27;100021.22;4967530;28;19985;-70
2022/07/31 06:19:34;;;;;;;;;;;;;;;22.48;38.75;100023.56;4950476;28;20028;-71
2022/07/31 06:21:59;;;;;;;;;;;;;;;22.78;37.52;100014.88;4970806;28;20465;-68
2022/07/31 06:24:27;;;;;;;;;;;;;;;22.79;37.27;100015.72;4970566;28;20032;-67
2022/07/31 06:26:55;;;;;;;;;;;;;;;22.85;36.63;100010.72;4939490;28;20128;-67
2022/07/31 06:29:21;;;;;;;;;;;;;;;23.00;35.55;100012.75;4971022;28;20024;-67
2022/07/31 06:31:47;;;;;;;;;;;;;;;22.95;35.23;100010.22;4968839;28;19970;-71
2022/07/31 06:34:15;;;;;;;;;;;;;;;22.71;36.15;100022.22;4970147;28;19940;-70
2022/07/31 06:36:42;;;;;;;;;;;;;;;22.50;37.22;100026.00;4970038;28;20004;-70
2022/07/31 06:39:13;;;;;;;;;;;;;;;22.37;37.66;100025.97;4955360;28;19958;-71
2022/07/31 06:41:48;;;;;;;;;;;;;;;22.27;38.42;100020.06;4972267;28;19931;-70
2022/07/31 06:44:30;;;;;;;;;;;;;;;22.27;38.09;100023.69;4971663;28;20439;-71
2022/07/31 06:47:23;;;;;;;;;;;;;;;22.23;38.65;100015.19;4931398;29;19937;-71
2022/07/31 06:49:53;;;;;;;;;;;;;;;22.14;38.70;100022.06;4933425;29;19938;-71
2022/07/31 06:52:22;;;;;;;;;;;;;;;21.94;38.87;100016.25;4930609;29;20394;-70
2022/07/31 06:54:48;;;;;;;;;;;;;;;21.89;38.95;100017.28;4949632;28;19939;-67
2022/07/31 06:57:14;;;;;;;;;;;;;;;22.09;37.87;100010.00;4954545;28;19930;-68
2022/07/31 06:59:40;;;;;;;;;;;;;;;22.03;37.86;100014.16;4951353;29;19930;-67
2022/07/31 07:02:05;;;;;;;;;;;;;;;21.89;38.19;100017.28;4949290;28;20248;-67
2022/07/31 07:04:31;;;;;;;;;;;;;;;22.15;37.49;100009.75;4934422;29;19930;-68
2022/07/31 07:06:58;;;;;;;;;;;;;;;22.48;36.92;100012.44;4952173;28;20469;-68
2022/07/31 07:09:24;;;;;;;;;;;;;;;23.01;36.13;100008.78;4951941;29;19941;-68
2022/07/31 07:11:50;;;;;;;;;;;;;;;23.47;35.55;100004.88;4952208;28;19931;-68
2022/07/31 07:14:16;;;;;;;;;;;;;;;23.73;34.84;100011.94;4967301;28;20310;-70
2022/07/31 07:16:42;;;;;;;;;;;;;;;23.92;34.41;100009.22;4954376;28;19946;-70
2022/07/31 07:19:07;;;;;;;;;;;;;;;23.91;34.11;100010.41;4949656;29;19966;-70
2022/07/31 07:21:33;;;;;;;;;;;;;;;23.61;33.83;100010.84;4948735;28;20385;-70
2022/07/31 07:24:01;;;;;;;;;;;;;;;22.99;35.36;100013.91;4951587;29;19973;-70
2022/07/31 07:26:32;;;;;;;;;;;;;;;22.50;35.96;100018.47;4951417;28;19930;-69
2022/07/31 07:29:01;;;;;;;;;;;;;;;22.20;36.31;100013.13;4952234;28;19986;-70
2022/07/31 07:31:28;;;;;;;;;;;;;;;22.21;36.42;100011.13;4953681;28;19938;-70
2022/07/31 07:33:55;;;;;;;;;;;;;;;22.59;35.45;100015.53;4930864;29;20390;-70
2022/07/31 07:36:22;;;;;;;;;;;;;;;23.20;33.81;100007.31;4929040;29;19957;-71
2022/07/31 07:38:48;;;;;;;;;;;;;;;24.01;32.22;100000.66;4931281;29;19937;-71
2022/07/31 07:41:16;;;;;;;;;;;;;;;24.67;30.08;100003.00;4921530;28;20435;-70
2022/07/31 07:43:42;;;;;;;;;;;;;;;25.25;29.25;100001.38;4950064;29;19931;-70
2022/07/31 07:46:08;;;;;;;;;;;;;;;25.79;27.75;99987.56;4948969;28;19930;-71
2022/07/31 07:48:37;;;;;;;;;;;;;;;25.97;27.19;99987.06;4948837;28;19937;-69
2022/07/31 07:51:28;;;;;;;;;;;;;;;25.69;27.77;99996.59;4959021;28;20397;-70
2022/07/31 07:54:01;;;;;;;;;;;;;;;25.28;28.78;100000.63;4951412;29;20209;-69
2022/07/31 07:56:31;;;;;;;;;;;;;;;25.13;29.36;99996.75;4936531;28;20028;-70
2022/07/31 07:58:57;;;;;;;;;;;;;;;24.89;29.87;99992.28;4950379;28;19994;-71
2022/07/31 08:01:42;;;;;;;;;;;;;;;24.70;30.23;100002.25;4948549;28;19931;-71
2022/07/31 08:04:16;;;;;;;;;;;;;;;24.61;30.17;99996.06;4933858;29;20287;-71
2022/07/31 08:06:42;;;;;;;;;;;;;;;25.02;30.03;99988.16;4949744;28;20021;-70
2022/07/31 08:09:08;;;;;;;;;;;;;;;25.78;28.82;99988.75;4933669;29;19960;-71
2022/07/31 08:12:05;;;;;;;;;;;;;;;26.54;27.55;99992.72;4964591;28;19930;-71
2022/07/31 08:14:56;;;;;;;;;;;;;;;27.12;26.69;99990.66;4949466;28;20152;-70
2022/07/31 08:17:40;;;;;;;;;;;;;;;27.43;26.16;99979.31;4961050;28;20373;-72
2022/07/31 08:20:06;;;;;;;;;;;;;;;27.36;26.40;99988.47;4967349;28;19934;-72
2022/07/31 08:22:32;;;;;;;;;;;;;;;27.57;26.42;99979.50;4969820;28;19937;-71
2022/07/31 08:24:58;;;;;;;;;;;;;;;27.76;26.79;99982.47;4952834;28;19930;-71
2022/07/31 08:27:29;;;;;;;;;;;;;;;27.30;27.32;99985.22;4969469;28;19930;-72
2022/07/31 08:29:56;;;;;;;;;;;;;;;26.32;28.53;99988.81;4959098;28;19974;-71
2022/07/31 08:32:22;;;;;;;;;;;;;;;25.41;30.07;99992.06;4964454;28;20039;-70
2022/07/31 08:35:07;;;;;;;;;;;;;;;24.63;31.49;99988.09;4952629;28;19930;-71
2022/07/31 08:37:33;;;;;;;;;;;;;;;24.17;32.24;99983.09;4948331;28;20401;-67
2022/07/31 08:39:59;;;;;;;;;;;;;;;24.41;32.04;99989.63;4949189;28;19930;-67
2022/07/31 08:42:26;;;;;;;;;;;;;;;25.83;29.81;99984.81;4949501;29;19930;-67
2022/07/31 08:44:55;;;;;;;;;;;;;;;27.24;28.17;99988.75;4948831;28;19977;-71
2022/07/31 08:47:27;;;;;;;;;;;;;;;28.62;26.16;99987.06;4938608;28;20309;-70
2022/07/31 08:49:55;;;;;;;;;;;;;;;29.42;24.90;99982.56;4951605;28;19930;-71
2022/07/31 08:52:25;;;;;;;;;;;;;;;30.06;23.76;99980.19;4955236;28;19930;-71
2022/07/31 08:55:00;;;;;;;;;;;;;;;30.32;23.37;99967.63;4953884;28;20420;-70
2022/07/31 08:57:27;;;;;;;;;;;;;;;30.39;22.87;99978.09;4945549;29;19953;-71
2022/07/31 08:59:55;;;;;;;;;;;;;;;30.80;22.69;99974.72;4938178;28;19937;-71
2022/07/31 09:02:21;;;;;;;;;;;;;;;31.23;22.10;99973.75;4945342;29;20037;-71
2022/07/31 09:05:06;;;;;;;;;;;;;;;30.98;21.90;99971.00;4949054;28;20361;-72
2022/07/31 09:07:31;;;;;;;;;;;;;;;30.73;22.34;99968.31;4946145;29;19936;-73
2022/07/31 09:09:57;;;;;;;;;;;;;;;30.84;22.28;99966.25;4948774;28;19930;-71
2022/07/31 09:12:29;;;;;;;;;;;;;;;30.95;22.22;99971.84;4949792;29;19930;-71
2022/07/31 09:15:02;;;;;;;;;;;;;;;31.08;21.71;99966.56;4953176;28;19974;-70
2022/07/31 09:17:30;;;;;;;;;;;;;;;31.66;20.85;99960.50;4949888;29;19938;-70
2022/07/31 09:19:56;;;;;;;;;;;;;;;31.72;21.24;99961.69;4915652;28;19930;-71
2022/07/31 09:22:26;;;;;;;;;;;;;;;32.06;20.49;99960.97;4947950;29;20428;-71
2022/07/31 09:25:04;;;;;;;;;;;;;;;31.95;20.79;99951.78;4947840;28;19934;-72
2022/07/31 09:27:32;;;;;;;;;;;;;;;32.86;19.55;99954.41;4954421;28;19969;-72
2022/07/31 09:29:57;;;;;;;;;;;;;;;33.02;18.71;99961.50;4956583;28;20021;-72
2022/07/31 09:32:46;;;;;;;;;;;;;;;32.50;19.09;99963.38;4947096;28;20033;-71
2022/07/31 09:35:21;;;;;;;;;;;;;;;31.69;19.56;99956.88;4949768;29;19937;-69
2022/07/31 09:37:47;;;;;;;;;;;;;;;31.14;20.39;99962.06;4954230;28;19930;-71
2022/07/31 09:40:36;;;;;;;;;;;;;;;31.06;20.73;99963.31;4953016;28;19930;-70
2022/07/31 09:43:33;;;;;;;;;;;;;;;30.05;21.66;99954.00;4952648;28;19938;-70
2022/07/31 09:45:59;;;;;;;;;;;;;;;29.25;22.43;99953.94;4959965;28;19930;-71
2022/07/31 09:48:25;;;;;;;;;;;;;;;28.66;22.50;99954.94;4949618;29;19930;-71
2022/07/31 09:50:52;;;;;;;;;;;;;;;28.93;22.65;99957.50;4948627;28;20037;-71
2022/07/31 09:53:18;;;;;;;;;;;;;;;29.56;21.87;99960.03;4949542;29;19938;-71
2022/07/31 09:55:48;;;;;;;;;;;;;;;31.30;20.26;99958.78;4928707;29;20420;-70
2022/07/31 09:58:14;;;;;;;;;;;;;;;33.17;18.70;99957.25;4941802;28;19937;-71
2022/07/31 10:00:42;;;;;;;;;;;;;;;33.15;18.44;99958.88;4949374;28;20251;-71
2022/07/31 10:03:09;;;;;;;;;;;;;;;32.93;18.71;99964.88;4950959;29;20024;-70
2022/07/31 10:05:36;;;;;;;;;;;;;;;32.86;18.52;99953.59;4934028;29;20415;-67
2022/07/31 10:08:03;;;;;;;;;;;;;;;31.81;19.47;99956.38;4948443;29;20049;-71
2022/07/31 10:10:55;;;;;;;;;;;;;;;30.51;21.00;99971.22;4929400;29;20402;-67
2022/07/31 10:13:43;;;;;;;;;;;;;;;30.85;20.42;99965.03;4912905;29;20462;-68
2022/07/31 10:16:10;;;;;;;;;;;;;;;30.64;21.13;99963.94;4912692;29;20021;-67
2022/07/31 10:19:12;;;;;;;;;;;;;;;29.94;21.27;99959.63;4872419;29;19932;-67
2022/07/31 10:22:16;;;;;;;;;;;;;;;29.07;22.30;99956.72;4912597;29;19931;-66
2022/07/31 10:24:46;;;;;;;;;;;;;;;28.41;22.85;99954.84;4912929;29;19931;-67
2022/07/31 10:27:14;;;;;;;;;;;;;;;27.70;23.39;99949.13;4909363;29;20074;-68
2022/07/31 10:29:42;;;;;;;;;;;;;;;27.62;23.69;99949.44;4915711;29;19938;-67
2022/07/31 10:32:10;;;;;;;;;;;;;;;27.79;23.65;99951.63;4916617;29;19978;-68
2022/07/31 10:34:45;;;;;;;;;;;;;;;27.70;23.93;99948.31;4915566;29;19930;-67
2022/07/31 10:37:33;;;;;;;;;;;;;;;27.41;24.25;99943.25;4914583;29;20023;-68
2022/07/31 10:40:40;;;;;;;;;;;;;;;27.40;24.67;99958.47;4913894;29;20538;-67
2022/07/31 10:43:17;;;;;;;;;;;;;;;27.32;24.47;99957.59;4914440;29;20270;-67
2022/07/31 10:45:48;;;;;;;;;;;;;;;27.87;24.43;99946.84;4883521;29;19931;-68
2022/07/31 10:48:36;;;;;;;;;;;;;;;30.14;22.63;99940.31;4914391;29;19966;-71
2022/07/31 10:51:25;;;;;;;;;;;;;;;32.30;20.42;99937.72;4932570;29;19930;-72
2022/07/31 10:54:10;;;;;;;;;;;;;;;33.63;19.07;99943.59;4932170;29;19931;-72
2022/07/31 10:56:55;;;;;;;;;;;;;;;33.43;19.36;99940.66;4950623;28;19996;-72
2022/07/31 10:59:46;;;;;;;;;;;;;;;31.43;20.88;99935.66;4949496;28;19930;-71
2022/07/31 11:02:44;;;;;;;;;;;;;;;29.63;22.65;99936.72;4945765;29;20389;-66
2022/07/31 11:05:28;;;;;;;;;;;;;;;28.85;23.65;99936.16;4946353;28;20414;-67
2022/07/31 11:08:09;;;;;;;;;;;;;;;28.50;24.32;99934.78;4947958;28;19931;-68
2022/07/31 11:10:53;;;;;;;;;;;;;;;28.09;24.65;99933.75;4971506;28;20028;-67
2022/07/31 11:13:46;;;;;;;;;;;;;;;27.69;25.10;99925.03;4964092;28;19930;-66
2022/07/31 11:16:30;;;;;;;;;;;;;;;27.45;25.02;99929.22;4970309;28;20376;-67
2022/07/31 11:19:37;;;;;;;;;;;;;;;27.25;25.15;99923.84;4970237;28;20005;-67
2022/07/31 11:22:11;;;;;;;;;;;;;;;27.15;25.42;99921.72;4971034;28;19937;-67
2022/07/31 11:24:38;;;;;;;;;;;;;;;26.94;25.84;99925.94;4959218;28;20386;-68
2022/07/31 11:27:04;;;;;;;;;;;;;;;28.05;25.07;99923.69;4968272;28;19931;-67
2022/07/31 11:29:31;;;;;;;;;;;;;;;29.12;23.21;99918.94;4935059;29;19931;-67
2022/07/31 11:32:12;;;;;;;;;;;;;;;30.02;22.08;99923.78;4966952;28;19934;-69
2022/07/31 11:34:45;;;;;;;;;;;;;;;29.43;22.23;99923.03;4950782;28;20378;-68
2022/07/31 11:37:15;;;;;;;;;;;;;;;28.57;22.94;99927.19;4968958;28;19952;-67
2022/07/31 11:39:42;;;;;;;;;;;;;;;28.37;23.31;99920.28;4970603;28;19960;-67
2022/07/31 11:42:07;;;;;;;;;;;;;;;27.99;23.81;99920.44;4971561;28;20286;-67
2022/07/31 11:44:33;;;;;;;;;;;;;;;27.92;24.12;99920.38;4986399;28;19930;-66
2022/07/31 11:46:59;;;;;;;;;;;;;;;27.76;24.57;99915.06;4964799;28;20444;-67
2022/07/31 11:49:25;;;;;;;;;;;;;;;28.68;23.68;99924.41;4960331;28;19953;-67
2022/07/31 11:51:58;;;;;;;;;;;;;;;31.33;20.58;99917.59;4961571;28;19965;-68
2022/07/31 11:54:25;;;;;;;;;;;;;;;32.18;19.61;99914.41;4967736;28;19930;-66
2022/07/31 11:56:52;;;;;;;;;;;;;;;32.60;18.76;99919.19;4960366;28;19977;-67
2022/07/31 11:59:27;;;;;;;;;;;;;;;32.98;18.73;99918.31;4938650;28;19930;-67
2022/07/31 12:01:52;;;;;;;;;;;;;;;34.20;17.43;99915.44;4948688;28;19934;-67
2022/07/31 12:04:18;;;;;;;;;;;;;;;34.32;16.89;99916.03;4949065;28;20424;-67
2022/07/31 12:06:44;;;;;;;;;;;;;;;34.98;16.21;99918.31;4950008;29;20358;-66
2022/07/31 12:09:11;;;;;;;;;;;;;;;35.59;15.94;99914.03;4939411;29;19973;-68
2022/07/31 12:11:38;;;;;;;;;;;;;;;36.55;14.68;99913.06;4934606;28;19934;-66
2022/07/31 12:14:04;;;;;;;;;;;;;;;37.06;14.27;99912.34;4934112;29;20537;-66
2022/07/31 12:16:37;;;;;;;;;;;;;;;37.72;13.95;99914.63;4942946;28;19930;-67
2022/07/31 12:19:03;;;;;;;;;;;;;;;38.71;13.05;99906.97;4947643;28;19961;-68
2022/07/31 12:21:32;;;;;;;;;;;;;;;39.41;12.54;99908.69;4931214;29;19957;-67
2022/07/31 12:23:58;;;;;;;;;;;;;;;39.48;12.61;99903.94;4949853;29;20041;-66
2022/07/31 12:26:24;;;;;;;;;;;;;;;39.48;12.53;99901.88;4952172;28;20244;-66
2022/07/31 12:28:58;;;;;;;;;;;;;;;39.41;12.34;99905.84;4951951;29;19937;-68
2022/07/31 12:31:24;;;;;;;;;;;;;;;39.04;12.67;99905.72;4951218;28;19930;-67
2022/07/31 12:33:50;;;;;;;;;;;;;;;38.85;12.73;99902.75;4951388;28;19985;-68
2022/07/31 12:36:16;;;;;;;;;;;;;;;38.80;12.66;99906.22;4955240;28;20352;-68
2022/07/31 12:38:42;;;;;;;;;;;;;;;38.71;12.60;99901.28;4957177;28;19930;-66
2022/07/31 12:41:08;;;;;;;;;;;;;;;39.06;12.87;99906.06;4964448;28;19930;-67
2022/07/31 12:43:34;;;;;;;;;;;;;;;38.99;12.68;99901.44;4968809;28;20000;-67
2022/07/31 12:46:04;;;;;;;;;;;;;;;38.81;12.44;99910.69;4967948;28;19968;-67
2022/07/31 12:48:30;;;;;;;;;;;;;;;39.02;12.51;99899.66;4970654;28;19933;-67
2022/07/31 12:50:55;;;;;;;;;;;;;;;38.19;13.18;99903.63;4968989;28;19930;-67
2022/07/31 12:53:21;;;;;;;;;;;;;;;38.42;12.75;99890.94;4969606;28;19945;-67
2022/07/31 12:55:47;;;;;;;;;;;;;;;38.57;12.40;99881.84;4969599;28;20380;-66